Time;durP1;ratioP1;P1;durP2;ratioP2;P2;SDS_P1;SDS_P2;PMS_P1;PMS_P2;Temp;Humidity;BMP_temperature;BMP_pressure;BME280_temperature;BME280_humidity;BME280_pressure;Samples;Min_cycle;Max_cycle;Signal;HPM_P1;HPM_P2
2023/09/07 00:00:29;;;;;;;7.80;4.13;;;;;;;21.80;100.00;-18612.69;5013161;28;20046;-76
2023/09/07 00:02:55;;;;;;;6.32;4.90;;;;;;;21.77;100.00;-18612.03;5031993;28;20171;-76
2023/09/07 00:05:20;;;;;;;8.13;4.93;;;;;;;21.67;100.00;-18609.31;5015515;28;20048;-76
2023/09/07 00:07:45;;;;;;;9.35;4.82;;;;;;;21.71;100.00;-18610.25;5028465;28;20034;-76
2023/09/07 00:10:11;;;;;;;8.13;4.68;;;;;;;21.70;100.00;-18610.13;5027214;28;20117;-76
2023/09/07 00:12:39;;;;;;;8.23;4.68;;;;;;;21.65;100.00;-18608.75;5027377;28;20045;-76
2023/09/07 00:15:06;;;;;;;6.57;4.82;;;;;;;21.70;100.00;-18610.13;5028683;28;20128;-76
2023/09/07 00:17:31;;;;;;;6.30;4.85;;;;;;;21.60;100.00;-18607.41;5022166;28;20054;-76
2023/09/07 00:19:58;;;;;;;10.48;5.13;;;;;;;21.66;100.00;-18609.03;5013279;28;20049;-76
2023/09/07 00:22:25;;;;;;;6.85;5.10;;;;;;;21.62;100.00;-18607.94;5030740;28;20128;-76
2023/09/07 00:24:51;;;;;;;6.10;4.60;;;;;;;21.48;100.00;-18604.16;5031659;28;20041;-76
2023/09/07 00:27:16;;;;;;;6.70;5.05;;;;;;;21.38;100.00;-18601.56;5028792;28;20095;-76
2023/09/07 00:29:41;;;;;;;9.07;5.28;;;;;;;21.53;100.00;-18605.63;5029786;28;20045;-76
2023/09/07 00:32:07;;;;;;;7.43;4.72;;;;;;;21.47;100.00;-18604.00;5029698;28;20121;-76
2023/09/07 00:34:32;;;;;;;7.68;4.40;;;;;;;21.48;100.00;-18604.28;5029249;28;20057;-75
2023/09/07 00:36:58;;;;;;;7.18;4.80;;;;;;;21.51;100.00;-18604.97;5027214;28;20168;-76
2023/09/07 00:39:23;;;;;;;8.00;5.03;;;;;;;21.49;100.00;-18604.41;5018264;28;20049;-75
2023/09/07 00:41:49;;;;;;;7.55;4.75;;;;;;;21.50;100.00;-18604.69;5023091;28;20042;-76
2023/09/07 00:44:14;;;;;;;7.57;4.53;;;;;;;21.47;100.00;-18604.00;5017348;28;20034;-76
2023/09/07 00:46:39;;;;;;;6.68;4.50;;;;;;;21.53;100.00;-18605.50;5027565;28;20099;-76
2023/09/07 00:49:05;;;;;;;7.32;5.35;;;;;;;21.54;100.00;-18605.78;5026985;28;20776;-76
2023/09/07 00:51:31;;;;;;;6.03;4.70;;;;;;;21.55;100.00;-18606.19;5009103;28;20049;-77
2023/09/07 00:53:58;;;;;;;6.65;4.68;;;;;;;21.54;100.00;-18605.78;5006946;28;20125;-76
2023/09/07 00:56:26;;;;;;;7.50;4.80;;;;;;;21.33;100.00;-18600.19;5023292;28;20400;-76
2023/09/07 00:58:54;;;;;;;13.63;4.57;;;;;;;21.32;100.00;-18600.06;5008995;28;20273;-76
2023/09/07 01:01:19;;;;;;;8.57;5.18;;;;;;;21.25;100.00;-18598.03;5026619;28;20037;-76
2023/09/07 01:03:45;;;;;;;8.00;4.85;;;;;;;21.30;100.00;-18599.53;5027658;28;20057;-76
2023/09/07 01:06:45;;;;;;;7.60;4.68;;;;;;;21.49;100.00;-18604.41;5027389;28;20124;-76
2023/09/07 01:09:14;;;;;;;9.00;5.18;;;;;;;21.56;100.00;-18606.31;5000314;28;20049;-76
2023/09/07 01:11:40;;;;;;;9.35;4.97;;;;;;;21.45;100.00;-18603.47;5027334;28;20045;-76
2023/09/07 01:14:05;;;;;;;6.38;4.40;;;;;;;21.36;100.00;-18601.16;5023268;28;20043;-76
2023/09/07 01:16:35;;;;;;;6.80;5.20;;;;;;;21.10;100.00;-18594.09;5008213;28;20038;-77
2023/09/07 01:19:01;;;;;;;9.73;5.13;;;;;;;21.09;100.00;-18593.81;5027499;28;20128;-76
2023/09/07 01:21:28;;;;;;;7.78;4.90;;;;;;;21.20;100.00;-18596.78;5014267;28;20045;-76
2023/09/07 01:23:54;;;;;;;7.03;4.65;;;;;;;21.19;100.00;-18596.53;5007679;28;20129;-76
2023/09/07 01:26:20;;;;;;;7.90;4.60;;;;;;;21.08;100.00;-18593.66;5006623;28;20042;-76
2023/09/07 01:28:45;;;;;;;7.22;4.50;;;;;;;21.09;100.00;-18593.81;5026880;28;20034;-76
2023/09/07 01:31:11;;;;;;;8.02;5.25;;;;;;;21.01;100.00;-18591.63;5025122;28;20067;-76
2023/09/07 01:33:37;;;;;;;7.68;5.22;;;;;;;21.13;100.00;-18594.91;5026366;28;20065;-76
2023/09/07 01:36:02;;;;;;;9.70;5.18;;;;;;;21.16;100.00;-18595.84;5027720;28;20044;-76
2023/09/07 01:38:28;;;;;;;6.88;4.65;;;;;;;21.09;100.00;-18593.94;5025736;28;20049;-76
2023/09/07 01:40:53;;;;;;;9.10;5.40;;;;;;;20.98;100.00;-18590.81;5025756;28;20456;-77
2023/09/07 01:43:19;;;;;;;7.57;4.85;;;;;;;20.94;100.00;-18590.00;5024188;28;20117;-76
2023/09/07 01:45:45;;;;;;;7.10;5.03;;;;;;;20.85;100.00;-18587.41;5026559;28;20442;-76
2023/09/07 01:48:12;;;;;;;7.55;4.82;;;;;;;20.86;100.00;-18587.81;5026429;28;20132;-76
2023/09/07 01:50:37;;;;;;;10.40;5.80;;;;;;;20.70;100.00;-18583.59;5027036;28;20477;-77
2023/09/07 01:53:04;;;;;;;9.65;5.20;;;;;;;20.76;100.00;-18585.09;5024592;28;20053;-77
2023/09/07 01:55:30;;;;;;;7.93;4.50;;;;;;;20.69;100.00;-18583.34;5022847;28;20187;-77
2023/09/07 01:57:55;;;;;;;7.93;5.25;;;;;;;20.68;100.00;-18582.94;5026497;28;20571;-76
2023/09/07 02:00:21;;;;;;;7.05;5.70;;;;;;;20.71;100.00;-18583.88;5026108;28;20509;-76
2023/09/07 02:02:46;;;;;;;9.48;4.95;;;;;;;20.73;100.00;-18584.41;5020083;28;20045;-76
2023/09/07 02:05:12;;;;;;;7.00;5.00;;;;;;;20.69;100.00;-18583.19;5025765;28;20076;-76
2023/09/07 02:07:37;;;;;;;8.20;5.25;;;;;;;20.64;100.00;-18581.97;5008177;28;20505;-76
2023/09/07 02:10:03;;;;;;;6.88;5.15;;;;;;;20.57;100.00;-18580.06;5026981;28;20073;-76
2023/09/07 02:12:29;;;;;;;7.40;5.10;;;;;;;20.69;100.00;-18583.19;5025691;28;20132;-76
2023/09/07 02:14:55;;;;;;;7.78;5.13;;;;;;;20.69;100.00;-18583.19;5024711;28;20045;-76
2023/09/07 02:17:20;;;;;;;7.25;4.82;;;;;;;20.54;100.00;-18579.13;5015892;28;20037;-76
2023/09/07 02:19:46;;;;;;;8.57;5.53;;;;;;;20.63;100.00;-18581.69;5024511;28;20041;-76
2023/09/07 02:22:11;;;;;;;6.15;4.70;;;;;;;20.61;100.00;-18581.03;5021711;28;20412;-76
2023/09/07 02:24:37;;;;;;;6.18;4.95;;;;;;;20.72;100.00;-18584.00;5017410;28;20056;-76
2023/09/07 02:27:02;;;;;;;6.53;4.93;;;;;;;20.66;100.00;-18582.38;5006320;28;20568;-76
2023/09/07 02:29:28;;;;;;;6.03;4.65;;;;;;;20.67;100.00;-18582.66;5018268;28;20133;-76
2023/09/07 02:31:53;;;;;;;7.55;5.28;;;;;;;20.67;100.00;-18582.78;5022852;28;20048;-76
2023/09/07 02:34:18;;;;;;;6.65;5.07;;;;;;;20.53;100.00;-18578.97;5017128;28;20033;-76
2023/09/07 02:36:44;;;;;;;6.18;4.82;;;;;;;20.47;100.00;-18577.34;5017778;28;20033;-76
2023/09/07 02:39:11;;;;;;;8.68;5.35;;;;;;;20.54;100.00;-18579.13;5024806;28;20033;-76
2023/09/07 02:41:36;;;;;;;6.45;5.07;;;;;;;20.55;100.00;-18579.38;5024895;28;20061;-76
2023/09/07 02:44:02;;;;;;;7.72;4.80;;;;;;;20.53;100.00;-18578.84;4999249;28;20615;-76
2023/09/07 02:46:28;;;;;;;7.28;5.25;;;;;;;20.60;100.00;-18580.75;5024102;28;20048;-76
2023/09/07 02:48:56;;;;;;;7.50;5.80;;;;;;;20.53;100.00;-18578.97;5022088;28;20436;-76
2023/09/07 02:51:22;;;;;;;7.88;5.30;;;;;;;20.37;100.00;-18574.75;5021760;28;20041;-76
2023/09/07 02:53:47;;;;;;;8.80;5.47;;;;;;;20.33;100.00;-18573.66;5024165;28;20048;-76
2023/09/07 02:56:13;;;;;;;7.70;5.30;;;;;;;20.22;100.00;-18570.69;5022144;28;20073;-77
2023/09/07 02:58:39;;;;;;;7.50;5.90;;;;;;;20.27;100.00;-18572.16;5025007;28;20069;-76
2023/09/07 03:01:10;;;;;;;7.22;5.38;;;;;;;20.35;100.00;-18574.22;5022783;28;20107;-76
2023/09/07 03:03:36;;;;;;;10.00;5.75;;;;;;;20.34;100.00;-18573.94;5025280;28;20420;-76
2023/09/07 03:06:12;;;;;;;7.05;5.00;;;;;;;20.37;100.00;-18574.63;5020214;28;20571;-77
2023/09/07 03:08:39;;;;;;;10.25;5.72;;;;;;;20.24;100.00;-18571.22;5006138;28;20679;-76
2023/09/07 03:11:05;;;;;;;8.55;5.50;;;;;;;20.40;100.00;-18575.56;5024643;28;20037;-76
2023/09/07 03:13:31;;;;;;;8.30;6.85;;;;;;;20.43;100.00;-18576.25;5022619;28;20566;-75
2023/09/07 03:15:57;;;;;;;8.93;5.88;;;;;;;20.46;100.00;-18577.06;4996137;28;20045;-75
2023/09/07 03:18:22;;;;;;;7.78;5.72;;;;;;;20.41;100.00;-18575.84;5023809;28;20124;-76
2023/09/07 03:20:49;;;;;;;9.20;6.03;;;;;;;20.37;100.00;-18574.75;5016755;28;20041;-76
2023/09/07 03:23:14;;;;;;;9.32;6.22;;;;;;;20.35;100.00;-18574.22;5024631;28;20042;-75
2023/09/07 03:25:40;;;;;;;7.35;5.82;;;;;;;20.35;100.00;-18574.22;5022349;28;21556;-75
2023/09/07 03:28:06;;;;;;;8.32;5.82;;;;;;;20.13;100.00;-18568.22;5002146;28;20034;-75
2023/09/07 03:30:31;;;;;;;8.20;5.55;;;;;;;20.29;100.00;-18572.59;5022955;28;20361;-76
2023/09/07 03:32:57;;;;;;;8.48;6.13;;;;;;;20.19;100.00;-18570.00;5025903;28;20083;-75
2023/09/07 03:35:22;;;;;;;8.02;5.90;;;;;;;20.16;100.00;-18569.19;5022355;28;20033;-75
2023/09/07 03:37:47;;;;;;;8.25;5.93;;;;;;;20.29;100.00;-18572.59;5021037;28;20042;-76
2023/09/07 03:40:13;;;;;;;8.43;5.70;;;;;;;20.14;100.00;-18568.50;5020178;28;20103;-75
2023/09/07 03:42:39;;;;;;;10.93;6.13;;;;;;;20.16;100.00;-18569.19;5009808;28;20061;-76
2023/09/07 03:45:05;;;;;;;9.95;6.00;;;;;;;20.18;100.00;-18569.72;5023214;28;20567;-75
2023/09/07 03:47:30;;;;;;;7.47;6.15;;;;;;;20.08;100.00;-18567.00;5024452;28;20100;-76
2023/09/07 03:49:57;;;;;;;8.95;6.07;;;;;;;20.06;100.00;-18566.47;5017049;28;20033;-75
2023/09/07 03:52:24;;;;;;;9.13;6.00;;;;;;;19.98;100.00;-18564.41;5019155;28;20038;-76
2023/09/07 03:54:53;;;;;;;12.70;6.85;;;;;;;20.03;100.00;-18565.78;5019251;28;20137;-75
2023/09/07 03:57:19;;;;;;;8.27;5.82;;;;;;;20.08;100.00;-18566.88;5001978;28;20049;-75
2023/09/07 03:59:45;;;;;;;9.52;6.85;;;;;;;19.94;100.00;-18563.31;5023836;28;20057;-76
2023/09/07 04:02:12;;;;;;;8.50;6.03;;;;;;;19.93;100.00;-18563.06;5012412;28;20048;-75
2023/09/07 04:04:37;;;;;;;8.32;5.72;;;;;;;20.04;100.00;-18566.03;5023462;28;20042;-76
2023/09/07 04:07:03;;;;;;;8.05;6.45;;;;;;;20.05;100.00;-18566.19;5024795;28;20045;-76
2023/09/07 04:09:28;;;;;;;10.35;6.32;;;;;;;19.84;100.00;-18560.59;5023164;28;20046;-76
2023/09/07 04:11:54;;;;;;;10.40;6.85;;;;;;;19.79;100.00;-18559.38;5026057;28;20076;-76
2023/09/07 04:14:19;;;;;;;11.00;6.55;;;;;;;19.86;100.00;-18561.16;5008452;28;20087;-76
2023/09/07 04:16:44;;;;;;;8.93;6.82;;;;;;;19.85;100.00;-18560.88;5025036;28;20041;-75
2023/09/07 04:19:10;;;;;;;9.73;7.03;;;;;;;19.89;100.00;-18561.97;5009685;28;20055;-75
2023/09/07 04:21:36;;;;;;;8.60;6.95;;;;;;;20.02;100.00;-18565.38;5027835;28;20045;-76
2023/09/07 04:24:02;;;;;;;10.18;7.30;;;;;;;19.94;100.00;-18563.19;5029556;28;20144;-76
2023/09/07 04:26:27;;;;;;;10.80;7.18;;;;;;;19.91;100.00;-18562.38;5026263;28;20044;-77
2023/09/07 04:28:53;;;;;;;11.82;7.43;;;;;;;19.96;100.00;-18563.72;5025676;28;20042;-76
2023/09/07 04:31:18;;;;;;;9.32;6.88;;;;;;;19.90;100.00;-18562.09;5006435;28;20044;-76
2023/09/07 04:33:43;;;;;;;11.95;6.97;;;;;;;19.87;100.00;-18561.41;5001358;28;20123;-76
2023/09/07 04:36:10;;;;;;;11.70;7.25;;;;;;;19.78;100.00;-18558.97;5004569;28;20524;-76
2023/09/07 04:38:35;;;;;;;9.40;7.28;;;;;;;19.57;100.00;-18553.50;5006474;28;20753;-76
2023/09/07 04:41:11;;;;;;;11.32;7.78;;;;;;;19.61;100.00;-18554.47;5027787;28;20037;-76
2023/09/07 04:43:40;;;;;;;9.27;6.57;;;;;;;19.48;100.00;-18551.06;5027238;28;20049;-77
2023/09/07 04:46:06;;;;;;;10.38;7.30;;;;;;;19.48;100.00;-18550.94;5001862;28;20038;-76
2023/09/07 04:48:32;;;;;;;10.05;7.45;;;;;;;19.47;100.00;-18550.78;5024795;28;20050;-76
2023/09/07 04:51:05;;;;;;;10.25;8.07;;;;;;;19.43;100.00;-18549.69;5019774;28;20157;-76
2023/09/07 04:53:34;;;;;;;10.55;7.57;;;;;;;19.53;100.00;-18552.28;5025483;28;20138;-77
2023/09/07 04:56:01;;;;;;;13.15;8.63;;;;;;;19.41;100.00;-18549.03;5024526;28;20045;-77
2023/09/07 04:58:26;;;;;;;11.45;7.78;;;;;;;19.48;100.00;-18550.94;5019966;28;20107;-76
2023/09/07 05:00:52;;;;;;;11.98;8.02;;;;;;;19.53;100.00;-18552.44;5007284;28;20049;-76
2023/09/07 05:03:17;;;;;;;13.40;8.13;;;;;;;19.51;100.00;-18551.88;5010012;28;20627;-76
2023/09/07 05:05:46;;;;;;;10.27;7.45;;;;;;;19.55;100.00;-18552.97;5024813;28;20049;-76
2023/09/07 05:08:11;;;;;;;14.25;8.10;;;;;;;19.53;100.00;-18552.28;5010093;28;20050;-76
2023/09/07 05:10:37;;;;;;;10.68;8.40;;;;;;;19.39;100.00;-18548.75;5012631;28;20120;-77
2023/09/07 05:13:03;;;;;;;10.23;7.93;;;;;;;19.45;100.00;-18550.09;5014920;28;20428;-76
2023/09/07 05:15:29;;;;;;;11.43;8.00;;;;;;;19.41;100.00;-18549.03;5026445;28;20045;-76
2023/09/07 05:17:54;;;;;;;13.35;8.80;;;;;;;19.58;100.00;-18553.78;5028159;28;20430;-76
2023/09/07 05:20:20;;;;;;;10.82;8.75;;;;;;;19.53;100.00;-18552.28;5027565;28;20100;-77
2023/09/07 05:22:46;;;;;;;11.40;8.60;;;;;;;19.60;100.00;-18554.34;5021653;28;20443;-76
2023/09/07 05:25:12;;;;;;;15.20;9.20;;;;;;;19.61;100.00;-18554.59;5001057;28;20374;-77
2023/09/07 05:27:37;;;;;;;11.93;9.00;;;;;;;19.77;100.00;-18558.84;5021509;28;20048;-77
2023/09/07 05:30:04;;;;;;;12.90;8.90;;;;;;;19.74;100.00;-18558.00;5025057;28;20432;-77
2023/09/07 05:32:30;;;;;;;14.48;9.13;;;;;;;19.89;100.00;-18561.97;5026057;28;20037;-77
2023/09/07 05:34:55;;;;;;;12.10;8.68;;;;;;;19.80;100.00;-18559.66;5018838;28;20037;-77
2023/09/07 05:37:21;;;;;;;13.63;8.73;;;;;;;19.98;100.00;-18564.28;5024839;28;20064;-76
2023/09/07 05:39:46;;;;;;;10.73;8.55;;;;;;;19.98;100.00;-18564.41;5010183;28;20514;-77
2023/09/07 05:42:12;;;;;;;12.00;7.93;;;;;;;20.04;100.00;-18566.03;5023741;28;20080;-77
2023/09/07 05:44:37;;;;;;;11.63;8.05;;;;;;;20.14;100.00;-18568.63;5025735;28;20069;-76
2023/09/07 05:47:03;;;;;;;10.68;8.48;;;;;;;20.19;100.00;-18570.00;5027579;28;20061;-76
2023/09/07 05:49:28;;;;;;;11.00;7.85;;;;;;;20.15;100.00;-18568.78;5027742;28;20041;-77
2023/09/07 05:51:54;;;;;;;12.25;8.38;;;;;;;20.16;100.00;-18569.03;5011739;28;20043;-77
2023/09/07 05:54:19;;;;;;;11.98;8.55;;;;;;;20.18;100.00;-18569.59;5028330;28;20774;-77
2023/09/07 05:56:44;;;;;;;12.23;8.15;;;;;;;20.19;100.00;-18570.00;5027841;28;20111;-77
2023/09/07 05:59:10;;;;;;;11.43;7.97;;;;;;;20.28;100.00;-18572.31;5020747;28;20061;-77
2023/09/07 06:01:35;;;;;;;10.80;8.57;;;;;;;20.36;100.00;-18574.47;5026982;28;20489;-77
2023/09/07 06:04:01;;;;;;;10.82;8.13;;;;;;;20.49;100.00;-18577.88;5014729;28;20091;-77
2023/09/07 06:06:26;;;;;;;10.35;7.78;;;;;;;20.59;100.00;-18580.63;5027242;28;20041;-77
2023/09/07 06:08:51;;;;;;;11.90;8.07;;;;;;;20.77;100.00;-18585.38;5029491;28;20036;-77
2023/09/07 06:11:17;;;;;;;11.27;8.13;;;;;;;20.87;100.00;-18588.09;5028949;28;20061;-77
2023/09/07 06:13:42;;;;;;;12.20;8.45;;;;;;;20.98;100.00;-18590.81;5029765;28;20400;-77
2023/09/07 06:16:07;;;;;;;11.93;7.47;;;;;;;21.06;100.00;-18593.13;5029438;28;20060;-77
2023/09/07 06:18:33;;;;;;;10.30;7.40;;;;;;;21.14;100.00;-18595.16;5028727;28;20107;-77
2023/09/07 06:20:58;;;;;;;10.73;7.00;;;;;;;21.28;100.00;-18598.97;5028216;28;20044;-77
2023/09/07 06:23:23;;;;;;;10.45;6.63;;;;;;;21.39;100.00;-18601.84;5027255;28;20405;-77
2023/09/07 06:25:49;;;;;;;9.75;7.40;;;;;;;21.93;100.00;-18616.09;5028193;28;20037;-77
2023/09/07 06:28:14;;;;;;;11.60;7.18;;;;;;;21.95;100.00;-18616.66;5027182;28;20045;-77
2023/09/07 06:30:40;;;;;;;8.82;6.80;;;;;;;22.20;100.00;-18623.44;5010908;28;20037;-77
2023/09/07 06:33:05;;;;;;;9.13;6.88;;;;;;;21.98;100.00;-18617.47;5026813;28;20472;-77
2023/09/07 06:35:31;;;;;;;9.88;6.80;;;;;;;22.19;100.00;-18623.16;5026251;28;20042;-77
2023/09/07 06:37:56;;;;;;;9.63;6.80;;;;;;;22.25;100.00;-18624.81;5029999;28;20037;-77
2023/09/07 06:40:22;;;;;;;11.18;7.28;;;;;;;22.35;100.00;-18627.25;5026927;28;20045;-77
2023/09/07 06:42:47;;;;;;;9.05;7.30;;;;;;;22.46;100.00;-18630.38;5021600;28;20048;-77
2023/09/07 06:45:12;;;;;;;8.90;6.57;;;;;;;22.66;100.00;-18635.53;5025861;28;20052;-77
2023/09/07 06:47:38;;;;;;;10.43;7.22;;;;;;;22.70;100.00;-18636.75;5009620;28;20042;-78
2023/09/07 06:50:05;;;;;;;9.48;6.40;;;;;;;22.84;100.00;-18640.28;5019541;28;20111;-77
2023/09/07 06:52:30;;;;;;;9.05;6.00;;;;;;;22.90;100.00;-18641.91;5027501;28;20694;-77
2023/09/07 06:54:56;;;;;;;9.27;7.00;;;;;;;23.13;100.00;-18648.16;5028749;28;20048;-77
2023/09/07 06:57:21;;;;;;;10.00;6.53;;;;;;;23.29;100.00;-18652.22;5026096;28;20045;-76
2023/09/07 06:59:48;;;;;;;8.95;6.60;;;;;;;23.36;100.00;-18654.13;5017556;28;20045;-76
2023/09/07 07:02:14;;;;;;;8.88;6.40;;;;;;;23.42;100.00;-18655.75;5024519;28;20123;-77
2023/09/07 07:04:39;;;;;;;8.85;5.47;;;;;;;23.53;100.00;-18658.72;5024898;28;20068;-76
2023/09/07 07:07:05;;;;;;;9.52;6.13;;;;;;;23.72;100.00;-18663.63;5025603;28;20052;-76
2023/09/07 07:09:31;;;;;;;11.40;6.20;;;;;;;23.93;99.92;-18669.31;5002094;28;20049;-76
2023/09/07 07:12:00;;;;;;;7.57;5.45;;;;;;;23.91;100.00;-18668.78;5025898;28;20133;-77
2023/09/07 07:14:25;;;;;;;8.70;5.70;;;;;;;23.97;99.19;-18670.41;5016007;28;20033;-76
2023/09/07 07:16:51;;;;;;;8.70;5.90;;;;;;;24.14;98.96;-18674.72;5024635;28;20034;-77
2023/09/07 07:19:16;;;;;;;7.43;5.82;;;;;;;24.28;98.93;-18678.53;5023750;28;20492;-76
2023/09/07 07:21:41;;;;;;;8.45;5.55;;;;;;;24.29;98.38;-18678.94;5024545;28;20033;-77
2023/09/07 07:24:07;;;;;;;6.88;4.97;;;;;;;24.31;97.87;-18679.47;5004460;28;20046;-76
2023/09/07 07:26:33;;;;;;;7.72;4.90;;;;;;;24.59;95.91;-18686.78;5022269;28;20053;-77
2023/09/07 07:28:58;;;;;;;7.43;5.15;;;;;;;24.74;95.34;-18690.84;5000194;28;20041;-77
2023/09/07 07:31:23;;;;;;;7.55;5.85;;;;;;;24.84;94.33;-18693.44;5020610;28;20586;-77
2023/09/07 07:33:49;;;;;;;7.68;5.30;;;;;;;24.88;95.46;-18694.50;5017423;28;20091;-77
2023/09/07 07:36:15;;;;;;;7.80;4.72;;;;;;;24.99;91.38;-18697.50;5007147;28;20408;-77
2023/09/07 07:38:40;;;;;;;7.97;5.45;;;;;;;25.13;91.08;-18701.16;5025742;28;20046;-77
2023/09/07 07:41:06;;;;;;;7.80;4.82;;;;;;;25.25;83.14;-18704.25;5003803;28;20045;-78
2023/09/07 07:43:33;;;;;;;6.55;4.82;;;;;;;25.46;82.02;-18709.69;5025307;28;20048;-78
2023/09/07 07:45:59;;;;;;;8.88;4.63;;;;;;;25.54;78.91;-18711.97;5023251;28;20131;-78
2023/09/07 07:48:24;;;;;;;6.90;4.55;;;;;;;25.60;78.20;-18713.59;5031077;28;20073;-77
2023/09/07 07:50:49;;;;;;;7.68;4.50;;;;;;;25.71;76.84;-18716.44;5031612;28;20060;-78
2023/09/07 07:53:15;;;;;;;6.55;4.40;;;;;;;25.90;77.82;-18721.44;5010021;28;20410;-77
2023/09/07 07:55:40;;;;;;;9.52;4.80;;;;;;;25.87;77.17;-18720.78;5026840;28;20050;-77
2023/09/07 07:58:10;;;;;;;6.45;4.55;;;;;;;26.03;78.60;-18724.84;5017087;28;20402;-77
2023/09/07 08:00:36;;;;;;;7.38;4.60;;;;;;;26.03;80.22;-18724.84;5023188;28;20057;-77
2023/09/07 08:03:06;;;;;;;7.97;4.80;;;;;;;26.17;77.91;-18728.63;5031154;28;20044;-77
2023/09/07 08:05:33;;;;;;;7.75;4.22;;;;;;;26.26;76.35;-18730.91;5013962;28;20111;-77
2023/09/07 08:07:58;;;;;;;8.75;4.72;;;;;;;26.40;76.83;-18734.56;5027772;28;20112;-77
2023/09/07 08:10:24;;;;;;;7.00;4.20;;;;;;;26.64;76.82;-18740.91;5027361;28;20136;-77
2023/09/07 08:12:56;;;;;;;9.75;4.63;;;;;;;26.71;73.89;-18742.94;5006518;28;20062;-78
2023/09/07 08:15:22;;;;;;;6.97;4.20;;;;;;;26.75;74.00;-18744.03;5010906;28;20102;-77
2023/09/07 08:17:48;;;;;;;5.03;3.97;;;;;;;26.81;72.97;-18745.38;5002206;28;20535;-78
2023/09/07 08:20:15;;;;;;;7.80;4.03;;;;;;;26.80;73.30;-18745.09;5003668;28;20038;-77
2023/09/07 08:22:42;;;;;;;7.22;4.75;;;;;;;27.06;75.65;-18752.13;5028233;28;20428;-77
2023/09/07 08:25:08;;;;;;;8.05;4.60;;;;;;;27.25;76.24;-18757.13;5022138;28;20084;-77
2023/09/07 08:27:34;;;;;;;8.25;3.80;;;;;;;27.11;74.47;-18753.34;5026845;28;20084;-77
2023/09/07 08:29:59;;;;;;;8.70;4.20;;;;;;;27.16;72.49;-18754.84;5028319;28;20193;-77
2023/09/07 08:32:25;;;;;;;5.32;3.95;;;;;;;27.27;71.22;-18757.53;5022798;28;20041;-77
2023/09/07 08:34:50;;;;;;;8.23;4.22;;;;;;;27.21;70.72;-18756.19;5025908;28;20204;-77
2023/09/07 08:37:16;;;;;;;7.05;4.25;;;;;;;27.39;71.66;-18760.78;5009617;28;20048;-77
2023/09/07 08:39:41;;;;;;;6.55;4.32;;;;;;;27.36;75.35;-18760.09;5027869;28;20041;-77
2023/09/07 08:42:06;;;;;;;7.20;4.80;;;;;;;27.87;74.90;-18773.59;5025490;28;20103;-77
2023/09/07 08:44:33;;;;;;;6.43;4.25;;;;;;;27.93;70.68;-18774.94;5007936;28;20053;-77
2023/09/07 08:47:03;;;;;;;6.57;4.28;;;;;;;28.02;71.08;-18777.50;5021930;28;20493;-77
2023/09/07 08:49:29;;;;;;;6.45;4.50;;;;;;;28.14;71.77;-18780.63;5027386;28;20219;-76
2023/09/07 08:51:59;;;;;;;7.72;4.28;;;;;;;28.24;71.70;-18783.19;5029329;28;20052;-77
2023/09/07 08:54:26;;;;;;;7.22;4.32;;;;;;;28.34;70.62;-18786.00;5028603;28;20048;-77
2023/09/07 08:56:52;;;;;;;6.20;4.45;;;;;;;28.32;72.04;-18785.34;5030125;28;20037;-77
2023/09/07 08:59:17;;;;;;;7.25;4.60;;;;;;;28.80;67.98;-18798.03;5028546;28;20056;-77
2023/09/07 09:01:43;;;;;;;7.57;4.05;;;;;;;28.83;67.24;-18798.81;5028458;28;20073;-77
2023/09/07 09:04:08;;;;;;;7.45;4.10;;;;;;;29.14;67.04;-18806.91;5021671;28;20473;-76
2023/09/07 09:06:33;;;;;;;5.32;3.60;;;;;;;29.12;63.74;-18806.38;5026908;28;20457;-78
2023/09/07 09:08:59;;;;;;;8.52;4.10;;;;;;;29.23;62.60;-18809.47;5016326;28;20044;-77
2023/09/07 09:11:26;;;;;;;9.60;4.60;;;;;;;29.49;62.70;-18816.19;5026952;28;20029;-77
2023/09/07 09:13:53;;;;;;;7.85;4.25;;;;;;;29.36;62.41;-18812.84;5022125;28;20437;-78
2023/09/07 09:16:19;;;;;;;9.27;4.35;;;;;;;29.60;62.79;-18819.03;5027789;28;20037;-78
2023/09/07 09:18:53;;;;;;;5.80;3.92;;;;;;;29.68;62.16;-18821.19;5021100;28;20029;-78
2023/09/07 09:21:20;;;;;;;6.38;3.60;;;;;;;29.66;62.24;-18820.78;5025419;28;20033;-77
2023/09/07 09:23:49;;;;;;;6.80;4.32;;;;;;;29.85;63.58;-18825.78;5018288;28;20497;-77
2023/09/07 09:26:15;;;;;;;5.63;3.80;;;;;;;30.11;60.15;-18832.50;5002835;28;20502;-78
2023/09/07 09:28:40;;;;;;;7.18;3.53;;;;;;;30.03;59.87;-18830.47;5010945;28;20049;-77
2023/09/07 09:31:12;;;;;;;5.90;3.47;;;;;;;30.15;58.24;-18833.56;5022660;28;20041;-78
2023/09/07 09:33:41;;;;;;;5.47;3.70;;;;;;;30.40;56.44;-18840.03;5027370;28;20448;-78
2023/09/07 09:36:07;;;;;;;5.32;3.40;;;;;;;30.44;54.90;-18841.25;5009011;28;20037;-78
2023/09/07 09:38:33;;;;;;;6.07;3.67;;;;;;;30.67;55.59;-18847.16;5009147;28;20053;-78
2023/09/07 09:40:59;;;;;;;5.55;3.88;;;;;;;30.86;54.38;-18852.13;5017454;28;20045;-77
2023/09/07 09:43:26;;;;;;;5.95;3.88;;;;;;;30.92;52.29;-18853.75;5024225;28;20034;-78
2023/09/07 09:45:52;;;;;;;8.32;3.75;;;;;;;30.89;53.70;-18852.94;5019412;28;20513;-78
2023/09/07 09:48:20;;;;;;;6.25;3.50;;;;;;;30.88;54.88;-18852.69;5028420;28;20103;-77
2023/09/07 09:50:50;;;;;;;8.95;4.18;;;;;;;30.80;52.00;-18850.78;5002795;28;20058;-77
2023/09/07 09:53:18;;;;;;;4.57;3.47;;;;;;;30.87;54.19;-18852.41;5000391;28;20062;-77
2023/09/07 09:55:47;;;;;;;5.03;3.30;;;;;;;30.65;54.49;-18846.75;5026630;28;20049;-77
2023/09/07 09:58:16;;;;;;;6.97;3.75;;;;;;;30.93;54.55;-18854.03;5027250;28;20120;-77
2023/09/07 10:00:48;;;;;;;6.22;3.22;;;;;;;31.12;53.42;-18859.00;5027721;28;20688;-77
2023/09/07 10:03:19;;;;;;;5.65;3.65;;;;;;;31.17;52.79;-18860.47;5020343;28;20121;-77
2023/09/07 10:05:46;;;;;;;5.63;3.60;;;;;;;31.40;51.67;-18866.53;5024704;28;20419;-78
2023/09/07 10:08:17;;;;;;;6.57;3.63;;;;;;;31.41;52.04;-18866.66;5026895;28;20037;-77
2023/09/07 10:10:44;;;;;;;5.63;3.25;;;;;;;31.57;51.33;-18870.81;5026963;28;20049;-77
2023/09/07 10:13:14;;;;;;;4.88;3.58;;;;;;;31.52;49.13;-18869.47;5010005;28;20120;-77
2023/09/07 10:15:39;;;;;;;5.63;4.20;;;;;;;31.50;53.03;-18869.06;5025943;28;20052;-78
2023/09/07 10:18:17;;;;;;;4.60;3.67;;;;;;;31.79;52.79;-18876.59;5027281;28;20392;-78
2023/09/07 10:20:52;;;;;;;5.40;3.30;;;;;;;31.90;49.10;-18879.53;5008316;28;20753;-77
2023/09/07 10:23:18;;;;;;;5.03;3.15;;;;;;;32.02;50.34;-18882.78;5026547;28;20095;-77
2023/09/07 10:25:48;;;;;;;5.80;2.92;;;;;;;31.87;47.68;-18878.75;5019172;28;20072;-77
2023/09/07 10:28:25;;;;;;;4.80;3.20;;;;;;;31.89;48.94;-18879.28;5026438;28;20045;-77
2023/09/07 10:31:04;;;;;;;5.27;3.37;;;;;;;31.99;49.08;-18881.97;5018329;28;20045;-77
2023/09/07 10:33:34;;;;;;;5.32;3.17;;;;;;;32.03;47.22;-18883.03;5026987;28;20506;-77
2023/09/07 10:36:00;;;;;;;6.95;3.05;;;;;;;32.22;47.72;-18888.00;5025566;28;20473;-78
2023/09/07 10:38:25;;;;;;;7.68;2.92;;;;;;;32.34;45.37;-18891.22;5024863;28;20084;-77
2023/09/07 10:40:58;;;;;;;6.05;3.35;;;;;;;32.46;45.71;-18894.31;5025277;28;20531;-77
2023/09/07 10:43:25;;;;;;;7.95;3.00;;;;;;;32.70;43.35;-18900.47;5026400;28;20037;-78
2023/09/07 10:45:50;;;;;;;6.55;3.03;;;;;;;32.64;42.76;-18898.88;5026535;28;20049;-77
2023/09/07 10:48:17;;;;;;;4.85;3.03;;;;;;;32.43;43.39;-18893.50;5026429;28;20037;-78
2023/09/07 10:50:46;;;;;;;4.85;3.13;;;;;;;32.59;42.80;-18897.81;5024420;28;20052;-76
2023/09/07 10:53:13;;;;;;;4.70;3.10;;;;;;;32.58;43.54;-18897.41;5025463;28;20041;-76
2023/09/07 10:55:39;;;;;;;3.97;3.00;;;;;;;32.52;42.53;-18895.94;5024577;28;20424;-76
2023/09/07 10:58:05;;;;;;;4.75;3.17;;;;;;;32.61;44.12;-18898.22;5026790;28;20037;-76
2023/09/07 11:00:31;;;;;;;7.63;2.72;;;;;;;32.69;41.83;-18900.34;5005287;28;20060;-76
2023/09/07 11:02:56;;;;;;;9.45;3.25;;;;;;;32.80;43.55;-18903.31;5015614;28;20446;-76
2023/09/07 11:05:21;;;;;;;5.60;3.13;;;;;;;32.80;42.44;-18903.16;5019397;28;20041;-76
2023/09/07 11:07:47;;;;;;;5.70;3.50;;;;;;;32.61;42.14;-18898.06;5022273;28;20767;-76
2023/09/07 11:10:13;;;;;;;5.32;3.22;;;;;;;32.56;43.33;-18897.00;5024854;28;20124;-76
2023/09/07 11:12:40;;;;;;;6.10;3.08;;;;;;;32.81;43.05;-18903.56;5024593;28;20061;-76
2023/09/07 11:15:09;;;;;;;5.63;3.22;;;;;;;32.83;42.73;-18903.84;5021420;28;20041;-76